Private Wetterstation Nrnberg - Katzwang
Wetterdaten: November 2015
Datum Temp. A. Feuchte A. Luftdruck Regen Wind Richtung Taupunkt Windchill Windben
01.11.2015 5,2 C 75 % 1028 hPa 0,0 l/m 6,0 km/h S 0,5 C 3,9 C 4,9 km/h
02.11.2015 3,6 C 74 % 1025 hPa 0,0 l/m 0,0 km/h S -1,3 C 3,6 C 0,0 km/h
03.11.2015 4,4 C 77 % 1019 hPa 0,0 l/m 4,1 km/h S-SW 0,4 C 3,3 C 3,4 km/h
04.11.2015 9,0 C 79 % 1020 hPa 0,0 l/m 0,0 km/h S 5,4 C 9,0 C 0,0 km/h
05.11.2015 9,6 C 78 % 1020 hPa 0,0 l/m 3,2 km/h S 5,6 C 9,0 C 2,6 km/h
06.11.2015 12,0 C 81 % 1022 hPa 0,0 l/m 2,5 km/h S 8,7 C 12,0 C 2,1 km/h
07.11.2015 14,0 C 85 % 1024 hPa 2,1 l/m 10,1 km/h S-SO 11,5 C 11,4 C 8,4 km/h
08.11.2015 13,4 C 82 % 1025 hPa 0,5 l/m 0,0 km/h S-SO 10,4 C 13,4 C 0,0 km/h
09.11.2015 14,4 C 77 % 1023 hPa 0,0 l/m 20,8 km/h N-NW 10,4 C 9,5 C 24,0 km/h
10.11.2015 13,5 C 74 % 1023 hPa 0,0 l/m 2,5 km/h NW 8,8 C 13,5 C 2,1 km/h
11.11.2015 10,1 C 76 % 1023 hPa 0,0 l/m 4,1 km/h N-NW 5,8 C 9,5 C 3,4 km/h
12.11.2015 8,1 C 82 % 1024 hPa 0,0 l/m 0,0 km/h S 5,1 C 8,1 C 0,0 km/h
13.11.2015 9,3 C 82 % 1022 hPa 1,0 l/m 4,1 km/h W-NW 6,4 C 8,1 C 3,4 km/h
14.11.2015 7,9 C 72 % 1024 hPa 0,5 l/m 15,1 km/h NW 3,1 C 3,0 C 18,3 km/h
15.11.2015 12,2 C 73 % 1014 hPa 1,0 l/m 20,5 km/h NW 7,4 C 7,1 C 21,9 km/h
16.11.2015 8,7 C 71 % 1015 hPa 0,0 l/m 2,8 km/h W-NW 3,0 C 8,2 C 2,3 km/h
17.11.2015 12,6 C 79 % 1012 hPa 2,1 l/m 14,2 km/h W-NW 9,0 C 8,3 C 11,8 km/h
18.11.2015 10,0 C 73 % 1016 hPa 0,0 l/m 9,4 km/h W-NW 5,1 C 7,4 C 12,3 km/h
19.11.2015 14,1 C 73 % 1011 hPa 0,0 l/m 22,0 km/h W-NW 9,2 C 8,3 C 26,6 km/h
20.11.2015 5,4 C 85 % 1002 hPa 48,7 l/m 4,4 km/h N-NW 3,1 C 4,3 C 3,7 km/h
21.11.2015 2,4 C 84 % 995 hPa 1,6 l/m 6,6 km/h SW -0,1 C -0,2 C 5,5 km/h
22.11.2015 1,1 C 84 % 1005 hPa 6,7 l/m 6,3 km/h W-NW -1,2 C -1,2 C 5,2 km/h
23.11.2015 1,5 C 84 % 1020 hPa 1,0 l/m 4,7 km/h W -0,9 C -0,7 C 3,9 km/h
24.11.2015 0,9 C 81 % 1017 hPa 0,0 l/m 3,5 km/h S -2,1 C -0,5 C 2,9 km/h
25.11.2015 2,2 C 85 % 1006 hPa 2,1 l/m 0,0 km/h S-SO -0,0 C 2,2 C 0,0 km/h
26.11.2015 3,3 C 86 % 1014 hPa 1,0 l/m 0,0 km/h N-NW 1,2 C 3,3 C 0,0 km/h
27.11.2015 0,3 C 86 % 1015 hPa 0,0 l/m 11,4 km/h O -1,7 C -4,9 C 9,4 km/h
28.11.2015 1,1 C 86 % 1014 hPa 2,6 l/m 14,2 km/h NW -0,9 C -5,3 C 11,8 km/h
29.11.2015 5,8 C 84 % 1014 hPa 2,1 l/m 10,4 km/h SW 3,3 C 2,8 C 8,6 km/h
30.11.2015 8,6 C 84 % 1016 hPa 10,9 l/m 24,0 km/h W-NW 6,0 C 2,2 C 22,7 km/h
Min-Datum 03.11.15 16.11.15 21.11.15 15 Tage 01.11.15 - 03.11.15 29.11.15 01.11.15
Min-Zeit 06:50 13:50 14:50 - 00:00 - 06:50 04:20 00:00
Minimum -3,3 C 36 % 994 hPa - 0,0 km/h - -5,3 C -16,8 C 0,0 km/h
Max-Datum 08.11.15 08.11.15 01.11.15 20.11.15 18.11.15 - 08.11.15 08.11.15 18.11.15
Max-Zeit 14:10 06:30 08:20 01:40 06:00 - 11:00 14:10 06:00
Maximum 20,1 C 87 % 1030 hPa 48,7 l/m 90,7 km/h
W-NW
- 15,1 C 20,1 C 127,4 km/h
W-NW
Durchschnitt 7,5 C 80 % 1017 hPa #83,9 l/m 7,6 km/h W-NW 4,0 C 5,3 C 7,4 km/h

Durchschnitt Minimum Temp.3,0 C
Durchschnitt Maximum Temp.12,4 C